sensor_id;sensor_type;location;lat;lon;timestamp;P1;durP1;ratioP1;P2;durP2;ratioP2
6290;SDS011;3178;48.730;8.990;2022-12-10T00:01:05;50.60;;;29.90;;
6290;SDS011;3178;48.730;8.990;2022-12-10T00:03:31;48.83;;;27.60;;
6290;SDS011;3178;48.730;8.990;2022-12-10T00:06:01;51.13;;;30.87;;
6290;SDS011;3178;48.730;8.990;2022-12-10T00:08:27;47.10;;;29.50;;
6290;SDS011;3178;48.730;8.990;2022-12-10T00:10:53;51.07;;;29.90;;
6290;SDS011;3178;48.730;8.990;2022-12-10T00:13:19;50.90;;;29.17;;
6290;SDS011;3178;48.730;8.990;2022-12-10T00:15:44;56.73;;;31.40;;
6290;SDS011;3178;48.730;8.990;2022-12-10T00:18:10;50.67;;;28.67;;
6290;SDS011;3178;48.730;8.990;2022-12-10T00:20:36;47.17;;;29.07;;
6290;SDS011;3178;48.730;8.990;2022-12-10T00:23:02;50.50;;;28.47;;
6290;SDS011;3178;48.730;8.990;2022-12-10T00:25:27;47.90;;;29.50;;
6290;SDS011;3178;48.730;8.990;2022-12-10T00:27:54;55.67;;;30.43;;
6290;SDS011;3178;48.730;8.990;2022-12-10T00:30:20;54.97;;;29.90;;
6290;SDS011;3178;48.730;8.990;2022-12-10T00:32:45;57.50;;;31.43;;
6290;SDS011;3178;48.730;8.990;2022-12-10T00:35:11;57.57;;;31.53;;
6290;SDS011;3178;48.730;8.990;2022-12-10T00:37:36;49.90;;;28.90;;
6290;SDS011;3178;48.730;8.990;2022-12-10T00:40:02;49.33;;;30.93;;
6290;SDS011;3178;48.730;8.990;2022-12-10T00:42:28;47.67;;;28.63;;
6290;SDS011;3178;48.730;8.990;2022-12-10T00:44:53;53.13;;;28.13;;
6290;SDS011;3178;48.730;8.990;2022-12-10T00:47:19;50.47;;;28.97;;
6290;SDS011;3178;48.730;8.990;2022-12-10T00:49:44;50.23;;;30.30;;
6290;SDS011;3178;48.730;8.990;2022-12-10T00:52:10;61.47;;;30.63;;
6290;SDS011;3178;48.730;8.990;2022-12-10T00:54:36;52.80;;;28.67;;
6290;SDS011;3178;48.730;8.990;2022-12-10T00:57:01;50.73;;;30.10;;
6290;SDS011;3178;48.730;8.990;2022-12-10T00:59:27;46.90;;;28.70;;
6290;SDS011;3178;48.730;8.990;2022-12-10T01:01:52;50.77;;;29.83;;
6290;SDS011;3178;48.730;8.990;2022-12-10T01:04:18;56.97;;;31.07;;
6290;SDS011;3178;48.730;8.990;2022-12-10T01:06:48;51.40;;;28.47;;
6290;SDS011;3178;48.730;8.990;2022-12-10T01:09:16;56.57;;;30.53;;
6290;SDS011;3178;48.730;8.990;2022-12-10T01:11:45;51.07;;;29.23;;
6290;SDS011;3178;48.730;8.990;2022-12-10T01:14:13;51.67;;;29.30;;
6290;SDS011;3178;48.730;8.990;2022-12-10T01:16:40;49.90;;;28.20;;
6290;SDS011;3178;48.730;8.990;2022-12-10T01:19:06;51.80;;;28.07;;
6290;SDS011;3178;48.730;8.990;2022-12-10T01:21:32;53.60;;;29.07;;
6290;SDS011;3178;48.730;8.990;2022-12-10T01:23:57;58.37;;;31.43;;
6290;SDS011;3178;48.730;8.990;2022-12-10T01:26:24;53.00;;;28.90;;
6290;SDS011;3178;48.730;8.990;2022-12-10T01:28:52;55.10;;;28.97;;
6290;SDS011;3178;48.730;8.990;2022-12-10T01:33:45;55.17;;;29.77;;
6290;SDS011;3178;48.730;8.990;2022-12-10T01:36:16;49.67;;;29.87;;
6290;SDS011;3178;48.730;8.990;2022-12-10T01:38:44;60.63;;;30.10;;
6290;SDS011;3178;48.730;8.990;2022-12-10T01:41:14;54.80;;;29.27;;
6290;SDS011;3178;48.730;8.990;2022-12-10T01:43:50;61.03;;;31.60;;
6290;SDS011;3178;48.730;8.990;2022-12-10T01:46:26;52.13;;;29.37;;
6290;SDS011;3178;48.730;8.990;2022-12-10T01:48:56;50.63;;;29.93;;
6290;SDS011;3178;48.730;8.990;2022-12-10T01:51:24;51.73;;;31.13;;
6290;SDS011;3178;48.730;8.990;2022-12-10T01:53:50;47.17;;;28.83;;
6290;SDS011;3178;48.730;8.990;2022-12-10T01:56:17;50.77;;;31.40;;
6290;SDS011;3178;48.730;8.990;2022-12-10T01:58:44;53.03;;;29.13;;
6290;SDS011;3178;48.730;8.990;2022-12-10T02:01:19;55.50;;;31.20;;
6290;SDS011;3178;48.730;8.990;2022-12-10T02:09:21;65.50;;;30.03;;
6290;SDS011;3178;48.730;8.990;2022-12-10T02:17:41;50.10;;;29.47;;
6290;SDS011;3178;48.730;8.990;2022-12-10T02:20:14;56.77;;;29.63;;
6290;SDS011;3178;48.730;8.990;2022-12-10T02:22:49;52.20;;;30.07;;
6290;SDS011;3178;48.730;8.990;2022-12-10T02:25:19;47.87;;;26.50;;
6290;SDS011;3178;48.730;8.990;2022-12-10T02:30:24;49.03;;;30.00;;
6290;SDS011;3178;48.730;8.990;2022-12-10T02:32:53;47.03;;;27.87;;
6290;SDS011;3178;48.730;8.990;2022-12-10T02:35:21;51.83;;;28.67;;
6290;SDS011;3178;48.730;8.990;2022-12-10T02:37:52;53.50;;;29.07;;
6290;SDS011;3178;48.730;8.990;2022-12-10T02:40:29;49.50;;;28.77;;
6290;SDS011;3178;48.730;8.990;2022-12-10T02:42:58;43.07;;;26.70;;
6290;SDS011;3178;48.730;8.990;2022-12-10T02:45:24;52.70;;;27.77;;
6290;SDS011;3178;48.730;8.990;2022-12-10T02:47:53;42.23;;;26.80;;
6290;SDS011;3178;48.730;8.990;2022-12-10T02:50:21;49.90;;;29.23;;
6290;SDS011;3178;48.730;8.990;2022-12-10T02:52:47;51.90;;;28.57;;
6290;SDS011;3178;48.730;8.990;2022-12-10T02:55:13;48.80;;;28.80;;
6290;SDS011;3178;48.730;8.990;2022-12-10T03:00:23;49.03;;;27.03;;
6290;SDS011;3178;48.730;8.990;2022-12-10T03:03:05;44.00;;;27.90;;
6290;SDS011;3178;48.730;8.990;2022-12-10T03:09:05;47.73;;;27.30;;
6290;SDS011;3178;48.730;8.990;2022-12-10T03:11:34;47.63;;;28.50;;
6290;SDS011;3178;48.730;8.990;2022-12-10T03:14:02;51.33;;;29.10;;
6290;SDS011;3178;48.730;8.990;2022-12-10T03:16:37;46.23;;;28.07;;
6290;SDS011;3178;48.730;8.990;2022-12-10T03:19:07;46.87;;;26.97;;
6290;SDS011;3178;48.730;8.990;2022-12-10T03:21:36;48.30;;;28.17;;
6290;SDS011;3178;48.730;8.990;2022-12-10T03:24:04;50.00;;;30.30;;
6290;SDS011;3178;48.730;8.990;2022-12-10T03:26:30;51.47;;;30.33;;
6290;SDS011;3178;48.730;8.990;2022-12-10T03:29:00;45.43;;;27.80;;
6290;SDS011;3178;48.730;8.990;2022-12-10T03:31:30;49.53;;;29.60;;
6290;SDS011;3178;48.730;8.990;2022-12-10T03:33:57;56.77;;;30.20;;
6290;SDS011;3178;48.730;8.990;2022-12-10T03:36:23;46.93;;;28.33;;
6290;SDS011;3178;48.730;8.990;2022-12-10T03:38:50;46.60;;;27.20;;
6290;SDS011;3178;48.730;8.990;2022-12-10T03:41:16;47.93;;;28.30;;
6290;SDS011;3178;48.730;8.990;2022-12-10T03:43:57;43.90;;;25.33;;
6290;SDS011;3178;48.730;8.990;2022-12-10T03:46:25;46.80;;;26.47;;
6290;SDS011;3178;48.730;8.990;2022-12-10T03:48:53;47.97;;;28.27;;
6290;SDS011;3178;48.730;8.990;2022-12-10T03:51:19;41.27;;;26.23;;
6290;SDS011;3178;48.730;8.990;2022-12-10T03:53:45;50.97;;;28.77;;
6290;SDS011;3178;48.730;8.990;2022-12-10T03:56:11;43.80;;;25.77;;
6290;SDS011;3178;48.730;8.990;2022-12-10T03:58:36;47.37;;;27.40;;
6290;SDS011;3178;48.730;8.990;2022-12-10T04:01:03;46.57;;;27.30;;
6290;SDS011;3178;48.730;8.990;2022-12-10T04:03:28;47.20;;;26.70;;
6290;SDS011;3178;48.730;8.990;2022-12-10T04:05:54;43.10;;;25.60;;
6290;SDS011;3178;48.730;8.990;2022-12-10T04:08:26;45.23;;;27.30;;
6290;SDS011;3178;48.730;8.990;2022-12-10T04:10:52;51.80;;;27.30;;
6290;SDS011;3178;48.730;8.990;2022-12-10T04:13:17;47.57;;;28.53;;
6290;SDS011;3178;48.730;8.990;2022-12-10T04:16:15;51.00;;;26.90;;
6290;SDS011;3178;48.730;8.990;2022-12-10T04:18:57;43.53;;;27.47;;
6290;SDS011;3178;48.730;8.990;2022-12-10T04:21:31;51.07;;;26.70;;
6290;SDS011;3178;48.730;8.990;2022-12-10T04:24:17;43.80;;;26.83;;
6290;SDS011;3178;48.730;8.990;2022-12-10T04:27:04;47.00;;;25.27;;
6290;SDS011;3178;48.730;8.990;2022-12-10T04:29:33;45.20;;;27.67;;
6290;SDS011;3178;48.730;8.990;2022-12-10T04:31:59;44.10;;;26.23;;
6290;SDS011;3178;48.730;8.990;2022-12-10T04:34:24;43.00;;;27.20;;
6290;SDS011;3178;48.730;8.990;2022-12-10T04:36:50;46.37;;;26.30;;
6290;SDS011;3178;48.730;8.990;2022-12-10T04:39:16;45.10;;;27.43;;
6290;SDS011;3178;48.730;8.990;2022-12-10T04:41:44;43.70;;;26.90;;
6290;SDS011;3178;48.730;8.990;2022-12-10T04:44:11;51.30;;;27.50;;
6290;SDS011;3178;48.730;8.990;2022-12-10T04:46:37;45.37;;;26.27;;
6290;SDS011;3178;48.730;8.990;2022-12-10T04:49:03;49.33;;;28.40;;
6290;SDS011;3178;48.730;8.990;2022-12-10T04:51:30;52.80;;;27.40;;
6290;SDS011;3178;48.730;8.990;2022-12-10T04:53:56;46.27;;;26.17;;
6290;SDS011;3178;48.730;8.990;2022-12-10T04:56:22;44.80;;;26.00;;
6290;SDS011;3178;48.730;8.990;2022-12-10T04:58:48;50.43;;;28.07;;
6290;SDS011;3178;48.730;8.990;2022-12-10T05:01:14;47.97;;;27.47;;
6290;SDS011;3178;48.730;8.990;2022-12-10T05:03:40;45.87;;;26.40;;
6290;SDS011;3178;48.730;8.990;2022-12-10T05:06:07;52.17;;;28.87;;
6290;SDS011;3178;48.730;8.990;2022-12-10T05:08:35;51.47;;;28.73;;
6290;SDS011;3178;48.730;8.990;2022-12-10T05:11:02;51.17;;;29.53;;
6290;SDS011;3178;48.730;8.990;2022-12-10T05:13:30;44.33;;;26.50;;
6290;SDS011;3178;48.730;8.990;2022-12-10T05:15:55;47.73;;;27.90;;
6290;SDS011;3178;48.730;8.990;2022-12-10T05:18:21;44.93;;;27.07;;
6290;SDS011;3178;48.730;8.990;2022-12-10T05:20:47;54.10;;;27.80;;
6290;SDS011;3178;48.730;8.990;2022-12-10T05:23:13;46.73;;;28.67;;
6290;SDS011;3178;48.730;8.990;2022-12-10T05:25:57;49.63;;;27.63;;
6290;SDS011;3178;48.730;8.990;2022-12-10T05:28:24;57.27;;;29.53;;
6290;SDS011;3178;48.730;8.990;2022-12-10T05:30:50;50.87;;;26.17;;
6290;SDS011;3178;48.730;8.990;2022-12-10T05:33:16;44.63;;;26.47;;
6290;SDS011;3178;48.730;8.990;2022-12-10T05:35:41;47.87;;;26.83;;
6290;SDS011;3178;48.730;8.990;2022-12-10T05:38:07;49.07;;;27.03;;
6290;SDS011;3178;48.730;8.990;2022-12-10T05:40:36;47.53;;;26.73;;
6290;SDS011;3178;48.730;8.990;2022-12-10T05:43:02;41.97;;;25.73;;
6290;SDS011;3178;48.730;8.990;2022-12-10T05:45:28;51.10;;;29.17;;
6290;SDS011;3178;48.730;8.990;2022-12-10T05:47:53;48.10;;;28.47;;
6290;SDS011;3178;48.730;8.990;2022-12-10T05:50:19;47.40;;;26.60;;
6290;SDS011;3178;48.730;8.990;2022-12-10T05:52:44;40.90;;;26.10;;
6290;SDS011;3178;48.730;8.990;2022-12-10T05:55:10;47.70;;;26.50;;
6290;SDS011;3178;48.730;8.990;2022-12-10T05:57:36;47.00;;;27.33;;
6290;SDS011;3178;48.730;8.990;2022-12-10T06:00:03;49.07;;;28.37;;
6290;SDS011;3178;48.730;8.990;2022-12-10T06:02:31;41.80;;;26.30;;
6290;SDS011;3178;48.730;8.990;2022-12-10T06:04:57;49.13;;;25.90;;
6290;SDS011;3178;48.730;8.990;2022-12-10T06:07:23;41.00;;;25.53;;
6290;SDS011;3178;48.730;8.990;2022-12-10T06:09:49;50.87;;;28.63;;
6290;SDS011;3178;48.730;8.990;2022-12-10T06:12:15;48.00;;;27.20;;
6290;SDS011;3178;48.730;8.990;2022-12-10T06:14:40;51.30;;;29.43;;
6290;SDS011;3178;48.730;8.990;2022-12-10T06:17:06;48.37;;;27.93;;
6290;SDS011;3178;48.730;8.990;2022-12-10T06:19:31;46.93;;;27.57;;
6290;SDS011;3178;48.730;8.990;2022-12-10T06:21:57;51.50;;;29.80;;
6290;SDS011;3178;48.730;8.990;2022-12-10T06:24:23;53.00;;;29.77;;
6290;SDS011;3178;48.730;8.990;2022-12-10T06:26:49;47.50;;;27.13;;
6290;SDS011;3178;48.730;8.990;2022-12-10T06:29:14;45.53;;;28.40;;
6290;SDS011;3178;48.730;8.990;2022-12-10T06:31:40;47.77;;;26.80;;
6290;SDS011;3178;48.730;8.990;2022-12-10T06:34:06;45.10;;;27.80;;
6290;SDS011;3178;48.730;8.990;2022-12-10T06:36:31;48.27;;;27.17;;
6290;SDS011;3178;48.730;8.990;2022-12-10T06:38:57;48.77;;;28.30;;
6290;SDS011;3178;48.730;8.990;2022-12-10T06:41:23;47.63;;;28.67;;
6290;SDS011;3178;48.730;8.990;2022-12-10T06:43:48;44.90;;;27.30;;
6290;SDS011;3178;48.730;8.990;2022-12-10T06:46:15;45.07;;;27.20;;
6290;SDS011;3178;48.730;8.990;2022-12-10T06:48:43;49.33;;;29.90;;
6290;SDS011;3178;48.730;8.990;2022-12-10T06:51:09;48.23;;;28.93;;
6290;SDS011;3178;48.730;8.990;2022-12-10T06:53:36;38.47;;;25.17;;
6290;SDS011;3178;48.730;8.990;2022-12-10T06:56:03;53.00;;;29.80;;
6290;SDS011;3178;48.730;8.990;2022-12-10T06:58:30;50.57;;;29.77;;
6290;SDS011;3178;48.730;8.990;2022-12-10T07:03:49;46.00;;;28.23;;
6290;SDS011;3178;48.730;8.990;2022-12-10T07:06:16;51.53;;;30.67;;
6290;SDS011;3178;48.730;8.990;2022-12-10T07:08:42;52.13;;;29.97;;
6290;SDS011;3178;48.730;8.990;2022-12-10T07:11:09;47.47;;;27.30;;
6290;SDS011;3178;48.730;8.990;2022-12-10T07:13:36;48.53;;;28.33;;
6290;SDS011;3178;48.730;8.990;2022-12-10T07:16:02;46.90;;;29.17;;
6290;SDS011;3178;48.730;8.990;2022-12-10T07:18:35;49.80;;;29.27;;
6290;SDS011;3178;48.730;8.990;2022-12-10T07:21:01;46.43;;;28.33;;
6290;SDS011;3178;48.730;8.990;2022-12-10T07:23:26;43.80;;;27.93;;
6290;SDS011;3178;48.730;8.990;2022-12-10T07:25:54;48.67;;;29.03;;
6290;SDS011;3178;48.730;8.990;2022-12-10T07:28:19;51.40;;;28.83;;
6290;SDS011;3178;48.730;8.990;2022-12-10T07:30:45;48.13;;;27.57;;
6290;SDS011;3178;48.730;8.990;2022-12-10T07:33:10;47.27;;;27.80;;
6290;SDS011;3178;48.730;8.990;2022-12-10T07:35:38;89.93;;;29.53;;
6290;SDS011;3178;48.730;8.990;2022-12-10T07:38:04;58.63;;;31.17;;
6290;SDS011;3178;48.730;8.990;2022-12-10T07:40:30;48.23;;;28.37;;
6290;SDS011;3178;48.730;8.990;2022-12-10T07:42:57;49.57;;;28.70;;
6290;SDS011;3178;48.730;8.990;2022-12-10T07:45:22;45.83;;;27.60;;
6290;SDS011;3178;48.730;8.990;2022-12-10T07:47:48;49.20;;;29.20;;
6290;SDS011;3178;48.730;8.990;2022-12-10T07:50:13;54.17;;;29.77;;
6290;SDS011;3178;48.730;8.990;2022-12-10T07:52:39;52.03;;;29.10;;
6290;SDS011;3178;48.730;8.990;2022-12-10T07:55:04;50.10;;;30.13;;
6290;SDS011;3178;48.730;8.990;2022-12-10T07:57:30;54.67;;;30.70;;
6290;SDS011;3178;48.730;8.990;2022-12-10T07:59:56;56.23;;;28.80;;
6290;SDS011;3178;48.730;8.990;2022-12-10T08:02:23;57.00;;;29.43;;
6290;SDS011;3178;48.730;8.990;2022-12-10T08:04:48;49.90;;;29.50;;
6290;SDS011;3178;48.730;8.990;2022-12-10T08:07:14;51.40;;;28.77;;
6290;SDS011;3178;48.730;8.990;2022-12-10T08:09:39;48.40;;;28.57;;
6290;SDS011;3178;48.730;8.990;2022-12-10T08:12:05;50.87;;;27.17;;
6290;SDS011;3178;48.730;8.990;2022-12-10T08:14:30;47.73;;;28.33;;
6290;SDS011;3178;48.730;8.990;2022-12-10T08:16:56;56.73;;;28.17;;
6290;SDS011;3178;48.730;8.990;2022-12-10T08:19:21;53.90;;;29.23;;
6290;SDS011;3178;48.730;8.990;2022-12-10T08:21:47;46.43;;;28.97;;
6290;SDS011;3178;48.730;8.990;2022-12-10T08:24:12;50.60;;;28.37;;
6290;SDS011;3178;48.730;8.990;2022-12-10T08:26:38;48.70;;;28.20;;
6290;SDS011;3178;48.730;8.990;2022-12-10T08:29:03;47.47;;;27.73;;
6290;SDS011;3178;48.730;8.990;2022-12-10T08:31:29;48.60;;;28.90;;
6290;SDS011;3178;48.730;8.990;2022-12-10T08:33:55;44.63;;;27.67;;
6290;SDS011;3178;48.730;8.990;2022-12-10T08:36:20;48.40;;;28.10;;
6290;SDS011;3178;48.730;8.990;2022-12-10T08:38:46;44.33;;;26.07;;
6290;SDS011;3178;48.730;8.990;2022-12-10T08:41:19;58.63;;;28.97;;
6290;SDS011;3178;48.730;8.990;2022-12-10T08:43:46;45.40;;;28.40;;
6290;SDS011;3178;48.730;8.990;2022-12-10T08:46:13;52.17;;;27.23;;
6290;SDS011;3178;48.730;8.990;2022-12-10T08:48:39;42.33;;;27.60;;
6290;SDS011;3178;48.730;8.990;2022-12-10T08:51:06;45.03;;;27.80;;
6290;SDS011;3178;48.730;8.990;2022-12-10T08:53:34;48.40;;;28.20;;
6290;SDS011;3178;48.730;8.990;2022-12-10T08:55:59;50.40;;;28.47;;
6290;SDS011;3178;48.730;8.990;2022-12-10T08:58:25;48.73;;;28.27;;
6290;SDS011;3178;48.730;8.990;2022-12-10T09:00:51;47.27;;;28.80;;
6290;SDS011;3178;48.730;8.990;2022-12-10T09:03:17;46.47;;;29.07;;
6290;SDS011;3178;48.730;8.990;2022-12-10T09:05:43;44.10;;;26.87;;
6290;SDS011;3178;48.730;8.990;2022-12-10T09:08:08;48.10;;;27.00;;
6290;SDS011;3178;48.730;8.990;2022-12-10T09:10:35;50.40;;;28.07;;
6290;SDS011;3178;48.730;8.990;2022-12-10T09:13:01;46.47;;;28.57;;
6290;SDS011;3178;48.730;8.990;2022-12-10T09:15:28;46.53;;;26.50;;
6290;SDS011;3178;48.730;8.990;2022-12-10T09:17:53;44.30;;;27.00;;
6290;SDS011;3178;48.730;8.990;2022-12-10T09:20:19;41.20;;;27.30;;
6290;SDS011;3178;48.730;8.990;2022-12-10T09:22:44;40.87;;;25.83;;
6290;SDS011;3178;48.730;8.990;2022-12-10T09:25:10;50.57;;;28.13;;
6290;SDS011;3178;48.730;8.990;2022-12-10T09:27:36;47.20;;;27.93;;
6290;SDS011;3178;48.730;8.990;2022-12-10T09:30:03;39.90;;;24.73;;
6290;SDS011;3178;48.730;8.990;2022-12-10T09:32:29;46.23;;;28.80;;
6290;SDS011;3178;48.730;8.990;2022-12-10T09:34:55;49.00;;;28.00;;
6290;SDS011;3178;48.730;8.990;2022-12-10T09:37:20;44.30;;;27.80;;
6290;SDS011;3178;48.730;8.990;2022-12-10T09:39:46;44.13;;;27.83;;
6290;SDS011;3178;48.730;8.990;2022-12-10T09:42:24;46.30;;;28.57;;
6290;SDS011;3178;48.730;8.990;2022-12-10T09:45:05;47.37;;;27.93;;
6290;SDS011;3178;48.730;8.990;2022-12-10T09:47:46;47.50;;;25.73;;
6290;SDS011;3178;48.730;8.990;2022-12-10T09:50:21;41.00;;;25.53;;
6290;SDS011;3178;48.730;8.990;2022-12-10T09:52:54;42.80;;;26.03;;
6290;SDS011;3178;48.730;8.990;2022-12-10T09:55:25;45.73;;;27.17;;
6290;SDS011;3178;48.730;8.990;2022-12-10T09:58:05;42.00;;;26.60;;
6290;SDS011;3178;48.730;8.990;2022-12-10T10:00:39;42.13;;;27.83;;
6290;SDS011;3178;48.730;8.990;2022-12-10T10:03:06;45.57;;;27.47;;
6290;SDS011;3178;48.730;8.990;2022-12-10T10:05:41;46.97;;;26.93;;
6290;SDS011;3178;48.730;8.990;2022-12-10T10:08:44;42.37;;;25.10;;
6290;SDS011;3178;48.730;8.990;2022-12-10T10:11:03;41.13;;;23.50;;
6290;SDS011;3178;48.730;8.990;2022-12-10T10:13:36;45.80;;;26.50;;
6290;SDS011;3178;48.730;8.990;2022-12-10T10:18:40;46.20;;;26.40;;
6290;SDS011;3178;48.730;8.990;2022-12-10T10:21:14;40.27;;;25.40;;
6290;SDS011;3178;48.730;8.990;2022-12-10T10:23:43;42.90;;;25.70;;
6290;SDS011;3178;48.730;8.990;2022-12-10T10:26:10;41.53;;;25.13;;
6290;SDS011;3178;48.730;8.990;2022-12-10T10:28:36;42.07;;;24.83;;
6290;SDS011;3178;48.730;8.990;2022-12-10T10:31:07;45.33;;;25.47;;
6290;SDS011;3178;48.730;8.990;2022-12-10T10:33:59;40.10;;;24.87;;
6290;SDS011;3178;48.730;8.990;2022-12-10T10:36:31;38.57;;;25.53;;
6290;SDS011;3178;48.730;8.990;2022-12-10T10:39:09;38.13;;;23.70;;
6290;SDS011;3178;48.730;8.990;2022-12-10T10:41:53;42.30;;;24.47;;
6290;SDS011;3178;48.730;8.990;2022-12-10T10:44:21;40.60;;;24.30;;
6290;SDS011;3178;48.730;8.990;2022-12-10T10:46:50;39.23;;;24.70;;
6290;SDS011;3178;48.730;8.990;2022-12-10T10:49:26;40.27;;;24.83;;
6290;SDS011;3178;48.730;8.990;2022-12-10T10:51:57;38.23;;;24.73;;
6290;SDS011;3178;48.730;8.990;2022-12-10T10:54:32;42.27;;;24.77;;
6290;SDS011;3178;48.730;8.990;2022-12-10T10:57:02;36.67;;;22.07;;
6290;SDS011;3178;48.730;8.990;2022-12-10T10:59:31;37.33;;;23.40;;
6290;SDS011;3178;48.730;8.990;2022-12-10T11:02:04;35.97;;;21.70;;
6290;SDS011;3178;48.730;8.990;2022-12-10T11:04:56;37.03;;;22.30;;
6290;SDS011;3178;48.730;8.990;2022-12-10T11:10:15;35.20;;;21.60;;
6290;SDS011;3178;48.730;8.990;2022-12-10T11:12:44;36.47;;;22.50;;
6290;SDS011;3178;48.730;8.990;2022-12-10T11:17:50;33.43;;;21.50;;
6290;SDS011;3178;48.730;8.990;2022-12-10T11:20:21;36.73;;;21.90;;
6290;SDS011;3178;48.730;8.990;2022-12-10T11:22:51;36.23;;;23.20;;
6290;SDS011;3178;48.730;8.990;2022-12-10T11:25:24;33.03;;;20.33;;
6290;SDS011;3178;48.730;8.990;2022-12-10T11:30:26;38.13;;;22.80;;
6290;SDS011;3178;48.730;8.990;2022-12-10T11:46:03;33.63;;;20.80;;
6290;SDS011;3178;48.730;8.990;2022-12-10T11:48:39;36.90;;;21.90;;
6290;SDS011;3178;48.730;8.990;2022-12-10T11:59:56;37.80;;;22.17;;
6290;SDS011;3178;48.730;8.990;2022-12-10T12:08:35;33.83;;;20.90;;
6290;SDS011;3178;48.730;8.990;2022-12-10T12:16:26;34.73;;;21.60;;
6290;SDS011;3178;48.730;8.990;2022-12-10T12:19:08;31.67;;;20.37;;
6290;SDS011;3178;48.730;8.990;2022-12-10T12:21:39;30.87;;;18.47;;
6290;SDS011;3178;48.730;8.990;2022-12-10T12:24:15;30.20;;;18.80;;
6290;SDS011;3178;48.730;8.990;2022-12-10T12:26:42;28.23;;;18.67;;
6290;SDS011;3178;48.730;8.990;2022-12-10T12:32:11;30.13;;;18.90;;
6290;SDS011;3178;48.730;8.990;2022-12-10T12:34:59;31.40;;;19.10;;
6290;SDS011;3178;48.730;8.990;2022-12-10T12:37:48;36.87;;;18.10;;
6290;SDS011;3178;48.730;8.990;2022-12-10T12:43:53;30.33;;;18.87;;
6290;SDS011;3178;48.730;8.990;2022-12-10T12:46:47;29.63;;;18.60;;
6290;SDS011;3178;48.730;8.990;2022-12-10T12:49:25;29.67;;;18.20;;
6290;SDS011;3178;48.730;8.990;2022-12-10T12:51:56;31.07;;;18.63;;
6290;SDS011;3178;48.730;8.990;2022-12-10T12:54:29;30.83;;;19.63;;
6290;SDS011;3178;48.730;8.990;2022-12-10T12:57:06;31.33;;;20.23;;
6290;SDS011;3178;48.730;8.990;2022-12-10T13:02:15;32.20;;;19.47;;
6290;SDS011;3178;48.730;8.990;2022-12-10T13:04:51;33.77;;;20.77;;
6290;SDS011;3178;48.730;8.990;2022-12-10T13:09:47;28.53;;;17.90;;
6290;SDS011;3178;48.730;8.990;2022-12-10T13:15:32;34.53;;;20.10;;
6290;SDS011;3178;48.730;8.990;2022-12-10T13:18:21;33.00;;;19.87;;
6290;SDS011;3178;48.730;8.990;2022-12-10T13:33:46;37.80;;;21.50;;
6290;SDS011;3178;48.730;8.990;2022-12-10T13:37:03;32.10;;;19.47;;
6290;SDS011;3178;48.730;8.990;2022-12-10T13:41:41;32.43;;;20.00;;
6290;SDS011;3178;48.730;8.990;2022-12-10T13:44:47;36.90;;;18.53;;
6290;SDS011;3178;48.730;8.990;2022-12-10T13:47:27;27.60;;;18.20;;
6290;SDS011;3178;48.730;8.990;2022-12-10T13:53:03;27.63;;;17.73;;
6290;SDS011;3178;48.730;8.990;2022-12-10T13:58:45;30.80;;;17.20;;
6290;SDS011;3178;48.730;8.990;2022-12-10T14:01:41;26.27;;;16.33;;
6290;SDS011;3178;48.730;8.990;2022-12-10T14:06:52;29.33;;;17.70;;
6290;SDS011;3178;48.730;8.990;2022-12-10T14:09:21;27.17;;;17.13;;
6290;SDS011;3178;48.730;8.990;2022-12-10T14:15:04;25.63;;;17.00;;
6290;SDS011;3178;48.730;8.990;2022-12-10T14:17:33;30.63;;;18.70;;
6290;SDS011;3178;48.730;8.990;2022-12-10T14:20:03;32.00;;;18.17;;
6290;SDS011;3178;48.730;8.990;2022-12-10T14:22:33;30.53;;;18.17;;
6290;SDS011;3178;48.730;8.990;2022-12-10T14:25:04;31.93;;;17.50;;
6290;SDS011;3178;48.730;8.990;2022-12-10T14:27:36;28.20;;;17.73;;
6290;SDS011;3178;48.730;8.990;2022-12-10T14:32:53;27.53;;;17.10;;
6290;SDS011;3178;48.730;8.990;2022-12-10T14:35:26;29.27;;;17.90;;
6290;SDS011;3178;48.730;8.990;2022-12-10T14:37:54;29.40;;;18.67;;
6290;SDS011;3178;48.730;8.990;2022-12-10T14:40:23;34.33;;;20.57;;
6290;SDS011;3178;48.730;8.990;2022-12-10T14:42:52;30.27;;;19.10;;
6290;SDS011;3178;48.730;8.990;2022-12-10T14:45:27;31.43;;;19.00;;
6290;SDS011;3178;48.730;8.990;2022-12-10T14:48:03;29.60;;;17.97;;
6290;SDS011;3178;48.730;8.990;2022-12-10T14:50:32;33.57;;;20.27;;
6290;SDS011;3178;48.730;8.990;2022-12-10T14:52:57;29.10;;;18.20;;
6290;SDS011;3178;48.730;8.990;2022-12-10T14:55:25;34.80;;;18.60;;
6290;SDS011;3178;48.730;8.990;2022-12-10T14:57:54;32.03;;;19.43;;
6290;SDS011;3178;48.730;8.990;2022-12-10T15:00:23;33.20;;;19.23;;
6290;SDS011;3178;48.730;8.990;2022-12-10T15:02:52;29.77;;;18.80;;
6290;SDS011;3178;48.730;8.990;2022-12-10T15:05:25;33.80;;;19.90;;
6290;SDS011;3178;48.730;8.990;2022-12-10T15:07:57;29.53;;;17.70;;
6290;SDS011;3178;48.730;8.990;2022-12-10T15:10:27;30.67;;;18.37;;
6290;SDS011;3178;48.730;8.990;2022-12-10T15:13:01;38.00;;;20.23;;
6290;SDS011;3178;48.730;8.990;2022-12-10T15:15:29;39.23;;;22.10;;
6290;SDS011;3178;48.730;8.990;2022-12-10T15:20:39;33.97;;;19.80;;
6290;SDS011;3178;48.730;8.990;2022-12-10T15:23:17;38.80;;;21.97;;
6290;SDS011;3178;48.730;8.990;2022-12-10T15:26:28;34.27;;;20.73;;
6290;SDS011;3178;48.730;8.990;2022-12-10T15:28:35;36.67;;;21.53;;
6290;SDS011;3178;48.730;8.990;2022-12-10T15:33:53;35.50;;;21.80;;
6290;SDS011;3178;48.730;8.990;2022-12-10T15:36:37;35.67;;;21.50;;
6290;SDS011;3178;48.730;8.990;2022-12-10T15:39:27;34.03;;;20.53;;
6290;SDS011;3178;48.730;8.990;2022-12-10T15:41:58;36.07;;;22.13;;
6290;SDS011;3178;48.730;8.990;2022-12-10T15:49:39;35.23;;;21.63;;
6290;SDS011;3178;48.730;8.990;2022-12-10T15:52:05;37.60;;;21.63;;
6290;SDS011;3178;48.730;8.990;2022-12-10T15:54:38;35.07;;;21.50;;
6290;SDS011;3178;48.730;8.990;2022-12-10T15:57:15;33.80;;;21.10;;
6290;SDS011;3178;48.730;8.990;2022-12-10T15:59:50;34.57;;;21.20;;
6290;SDS011;3178;48.730;8.990;2022-12-10T16:02:25;35.33;;;20.10;;
6290;SDS011;3178;48.730;8.990;2022-12-10T16:07:35;26.60;;;17.20;;
6290;SDS011;3178;48.730;8.990;2022-12-10T16:10:01;28.80;;;16.93;;
6290;SDS011;3178;48.730;8.990;2022-12-10T16:12:27;28.83;;;16.43;;
6290;SDS011;3178;48.730;8.990;2022-12-10T16:14:53;28.47;;;17.13;;
6290;SDS011;3178;48.730;8.990;2022-12-10T16:17:24;28.27;;;16.77;;
6290;SDS011;3178;48.730;8.990;2022-12-10T16:20:39;25.30;;;15.63;;
6290;SDS011;3178;48.730;8.990;2022-12-10T16:22:39;31.00;;;17.63;;
6290;SDS011;3178;48.730;8.990;2022-12-10T16:25:05;28.53;;;17.50;;
6290;SDS011;3178;48.730;8.990;2022-12-10T16:27:31;29.03;;;17.23;;
6290;SDS011;3178;48.730;8.990;2022-12-10T16:32:44;27.17;;;16.57;;
6290;SDS011;3178;48.730;8.990;2022-12-10T16:35:10;31.37;;;16.73;;
6290;SDS011;3178;48.730;8.990;2022-12-10T16:37:38;33.77;;;18.40;;
6290;SDS011;3178;48.730;8.990;2022-12-10T16:40:15;26.57;;;17.40;;
6290;SDS011;3178;48.730;8.990;2022-12-10T16:42:42;32.87;;;18.93;;
6290;SDS011;3178;48.730;8.990;2022-12-10T16:45:50;29.20;;;18.80;;
6290;SDS011;3178;48.730;8.990;2022-12-10T16:48:00;29.53;;;17.77;;
6290;SDS011;3178;48.730;8.990;2022-12-10T16:50:26;27.30;;;16.90;;
6290;SDS011;3178;48.730;8.990;2022-12-10T16:52:52;32.63;;;19.60;;
6290;SDS011;3178;48.730;8.990;2022-12-10T16:55:21;29.30;;;19.73;;
6290;SDS011;3178;48.730;8.990;2022-12-10T16:57:50;33.50;;;18.87;;
6290;SDS011;3178;48.730;8.990;2022-12-10T17:00:20;30.33;;;18.10;;
6290;SDS011;3178;48.730;8.990;2022-12-10T17:02:48;35.47;;;19.37;;
6290;SDS011;3178;48.730;8.990;2022-12-10T17:05:26;31.60;;;19.07;;
6290;SDS011;3178;48.730;8.990;2022-12-10T17:07:55;32.37;;;19.13;;
6290;SDS011;3178;48.730;8.990;2022-12-10T17:10:21;34.27;;;20.10;;
6290;SDS011;3178;48.730;8.990;2022-12-10T17:13:09;31.50;;;19.47;;